Time;durP1;ratioP1;P1;durP2;ratioP2;P2;SDS_P1;SDS_P2;PMS_P1;PMS_P2;Temp;Humidity;BMP_temperature;BMP_pressure;BME280_temperature;BME280_humidity;BME280_pressure;Samples;Min_cycle;Max_cycle;Signal;HPM_P1;HPM_P2
2023/10/08 00:02:22;;;;;;;1.50;0.65;;;13.80;99.90;;;;;;5036089;28;20041;-68
2023/10/08 00:04:50;;;;;;;3.42;0.60;;;13.80;99.90;;;;;;5052234;28;20049;-68
2023/10/08 00:07:21;;;;;;;1.63;0.60;;;13.80;99.90;;;;;;5044301;28;20057;-68
2023/10/08 00:09:51;;;;;;;1.50;0.70;;;13.70;99.90;;;;;;5053352;28;20037;-68
2023/10/08 00:12:28;;;;;;;1.52;0.70;;;13.70;99.90;;;;;;5033981;28;20067;-69
2023/10/08 00:14:54;;;;;;;3.88;0.90;;;13.70;99.90;;;;;;5050318;28;20072;-70
2023/10/08 00:17:20;;;;;;;3.95;1.25;;;13.70;99.90;;;;;;5035140;28;20095;-69
2023/10/08 00:19:52;;;;;;;4.65;0.90;;;13.70;99.90;;;;;;5052449;28;20045;-70
2023/10/08 00:22:19;;;;;;;3.97;0.90;;;13.60;99.90;;;;;;5035191;28;20052;-69
2023/10/08 00:24:46;;;;;;;5.25;1.20;;;13.60;99.90;;;;;;5053273;28;20045;-69
2023/10/08 00:27:14;;;;;;;3.83;0.80;;;13.60;99.90;;;;;;5034571;28;20045;-69
2023/10/08 00:29:43;;;;;;;3.20;1.05;;;13.60;99.90;;;;;;5052900;28;20041;-69
2023/10/08 00:32:12;;;;;;;2.05;1.02;;;13.60;99.90;;;;;;5034967;28;20506;-69
2023/10/08 00:34:42;;;;;;;2.35;0.95;;;13.60;99.90;;;;;;5034524;28;20056;-69
2023/10/08 00:37:10;;;;;;;3.88;0.90;;;13.60;99.90;;;;;;5052590;28;20055;-69
2023/10/08 00:39:37;;;;;;;3.00;0.82;;;13.50;99.90;;;;;;5035363;28;20053;-69
2023/10/08 00:42:07;;;;;;;1.42;0.60;;;13.50;99.90;;;;;;5034356;28;20040;-69
2023/10/08 00:44:51;;;;;;;1.92;0.65;;;13.50;99.90;;;;;;5052562;28;20036;-69
2023/10/08 00:47:17;;;;;;;4.07;0.70;;;13.50;99.90;;;;;;5034210;28;20123;-69
2023/10/08 00:54:56;;;;;;;2.10;0.77;;;13.50;99.90;;;;;;5051577;28;20067;-69
2023/10/08 00:57:25;;;;;;;4.18;0.80;;;13.50;99.90;;;;;;5034924;28;20051;-69
2023/10/08 00:59:54;;;;;;;4.10;0.88;;;13.50;99.90;;;;;;5034492;28;20063;-69
2023/10/08 01:02:59;;;;;;;2.17;0.80;;;13.50;99.90;;;;;;5034363;28;20053;-69
2023/10/08 01:05:23;;;;;;;2.70;0.73;;;13.50;99.90;;;;;;5051476;28;20049;-69
2023/10/08 01:07:51;;;;;;;3.13;0.80;;;13.50;99.90;;;;;;5034405;28;20106;-68
2023/10/08 01:10:20;;;;;;;4.03;0.60;;;13.50;99.90;;;;;;5034221;28;20484;-69
2023/10/08 01:13:05;;;;;;;4.10;0.75;;;13.50;99.90;;;;;;5035019;28;20061;-69
2023/10/08 01:15:35;;;;;;;2.05;0.63;;;13.50;99.90;;;;;;5051610;28;20403;-69
2023/10/08 01:18:01;;;;;;;2.25;0.93;;;13.50;99.90;;;;;;5051451;28;20059;-69
2023/10/08 01:20:34;;;;;;;5.32;0.70;;;13.50;99.90;;;;;;5034682;28;20049;-69
2023/10/08 01:26:22;;;;;;;1.95;0.80;;;13.50;99.90;;;;;;5025291;28;20057;-69
2023/10/08 01:28:46;;;;;;;2.97;0.90;;;13.50;99.90;;;;;;5033819;28;20435;-69
2023/10/08 01:31:13;;;;;;;2.60;0.70;;;13.50;99.90;;;;;;5051327;28;20049;-69
2023/10/08 01:33:43;;;;;;;5.75;1.10;;;13.50;99.90;;;;;;5034634;28;20123;-69
2023/10/08 01:36:12;;;;;;;3.45;0.90;;;13.50;99.90;;;;;;5052066;28;20049;-69
2023/10/08 01:38:39;;;;;;;3.30;0.95;;;13.50;99.90;;;;;;5051807;28;20063;-69
2023/10/08 01:41:18;;;;;;;6.80;1.10;;;13.50;99.90;;;;;;5034393;28;20053;-69
2023/10/08 01:43:44;;;;;;;3.13;0.80;;;13.60;99.90;;;;;;5052229;28;20213;-69
2023/10/08 01:46:11;;;;;;;1.60;0.65;;;13.60;99.90;;;;;;5032964;28;20103;-69
2023/10/08 01:48:41;;;;;;;2.25;0.73;;;13.60;99.90;;;;;;5034166;28;20061;-69
2023/10/08 01:51:11;;;;;;;3.22;0.82;;;13.60;99.90;;;;;;5051454;28;20060;-69
2023/10/08 01:53:38;;;;;;;2.72;0.80;;;13.60;99.90;;;;;;5051605;28;20487;-69
2023/10/08 01:56:04;;;;;;;2.90;0.90;;;13.60;99.90;;;;;;5033731;28;20408;-69
2023/10/08 01:58:30;;;;;;;3.72;0.88;;;13.60;99.90;;;;;;5033497;28;20128;-69
2023/10/08 02:00:59;;;;;;;2.80;0.77;;;13.60;99.90;;;;;;5051763;28;20432;-68
2023/10/08 02:03:27;;;;;;;5.38;1.00;;;13.60;99.90;;;;;;5051946;28;20182;-69
2023/10/08 02:05:53;;;;;;;3.85;1.20;;;13.60;99.90;;;;;;5050784;28;20051;-69
2023/10/08 02:08:20;;;;;;;4.05;1.00;;;13.60;99.90;;;;;;5034271;28;20049;-69
2023/10/08 02:10:48;;;;;;;4.40;0.88;;;13.60;99.90;;;;;;5034070;28;20130;-69
2023/10/08 02:13:15;;;;;;;2.28;0.75;;;13.60;99.90;;;;;;5033349;28;20586;-69
2023/10/08 02:15:54;;;;;;;4.28;1.02;;;13.60;99.90;;;;;;5035779;28;20073;-69
2023/10/08 02:18:23;;;;;;;3.15;0.93;;;13.60;99.90;;;;;;5037816;28;20168;-70
2023/10/08 02:20:48;;;;;;;2.70;0.50;;;13.60;99.90;;;;;;5036433;28;20072;-70
2023/10/08 02:23:14;;;;;;;4.65;0.90;;;13.60;99.90;;;;;;5037306;28;20080;-69
2023/10/08 02:25:40;;;;;;;4.50;1.00;;;13.60;99.90;;;;;;5037089;28;20045;-69
2023/10/08 02:28:26;;;;;;;3.60;0.85;;;13.60;99.90;;;;;;5054216;28;20052;-69
2023/10/08 02:30:52;;;;;;;3.80;0.90;;;13.60;99.90;;;;;;5054608;28;20060;-69
2023/10/08 02:33:17;;;;;;;2.88;0.93;;;13.60;99.90;;;;;;5036826;28;20045;-69
2023/10/08 02:35:45;;;;;;;4.05;0.93;;;13.60;99.90;;;;;;5055070;28;20052;-69
2023/10/08 02:38:16;;;;;;;4.65;1.00;;;13.60;99.90;;;;;;5054940;28;20087;-69
2023/10/08 02:40:47;;;;;;;3.60;0.98;;;13.50;99.90;;;;;;5036133;28;20472;-69
2023/10/08 02:43:15;;;;;;;2.83;0.98;;;13.60;99.90;;;;;;5055385;28;20103;-69
2023/10/08 02:45:41;;;;;;;6.20;1.27;;;13.60;99.90;;;;;;5037419;28;20049;-69
2023/10/08 02:48:11;;;;;;;4.30;1.05;;;13.60;99.90;;;;;;5053779;28;20057;-69
2023/10/08 02:50:40;;;;;;;5.22;0.90;;;13.50;99.90;;;;;;5055290;28;20045;-69
2023/10/08 02:53:29;;;;;;;3.58;1.00;;;13.60;99.90;;;;;;5036822;28;20091;-69
2023/10/08 02:55:53;;;;;;;4.40;1.02;;;13.60;99.90;;;;;;5035027;28;20110;-69
2023/10/08 02:58:24;;;;;;;3.83;0.85;;;13.60;99.90;;;;;;5054816;28;20045;-69
2023/10/08 03:00:53;;;;;;;2.95;0.90;;;13.60;99.90;;;;;;5036842;28;20045;-70
2023/10/08 03:03:18;;;;;;;3.50;0.93;;;13.50;99.90;;;;;;5035913;28;20500;-69
2023/10/08 03:05:46;;;;;;;5.10;0.98;;;13.50;99.90;;;;;;5036963;28;20067;-69
2023/10/08 03:08:12;;;;;;;4.25;0.95;;;13.60;99.90;;;;;;5054098;28;20049;-70
2023/10/08 03:10:40;;;;;;;3.40;1.10;;;13.60;99.90;;;;;;5054684;28;20484;-69
2023/10/08 03:13:07;;;;;;;6.95;1.50;;;13.60;99.90;;;;;;5053979;28;20041;-69
2023/10/08 03:18:21;;;;;;;3.70;0.95;;;13.60;99.90;;;;;;5054421;28;20476;-69
2023/10/08 03:20:49;;;;;;;4.88;1.27;;;13.60;99.90;;;;;;5054479;28;20075;-69
2023/10/08 03:23:33;;;;;;;4.95;1.00;;;13.60;99.90;;;;;;5053278;28;20041;-69
2023/10/08 03:26:17;;;;;;;4.30;1.10;;;13.60;99.90;;;;;;5035347;28;20060;-69
2023/10/08 03:28:43;;;;;;;3.45;1.20;;;13.60;99.90;;;;;;5036754;28;20136;-69
2023/10/08 03:31:17;;;;;;;4.97;0.98;;;13.60;99.90;;;;;;5053493;28;20131;-69
2023/10/08 03:33:48;;;;;;;2.83;0.98;;;13.60;99.90;;;;;;5054303;28;20076;-69
2023/10/08 03:36:20;;;;;;;3.72;1.10;;;13.60;99.90;;;;;;5036225;28;20053;-69
2023/10/08 03:38:53;;;;;;;3.30;1.00;;;13.60;99.90;;;;;;5054258;28;20037;-69
2023/10/08 03:41:27;;;;;;;2.88;0.77;;;13.60;99.90;;;;;;5053900;28;20554;-69
2023/10/08 03:44:05;;;;;;;6.65;1.23;;;13.60;99.90;;;;;;5053171;28;20404;-69
2023/10/08 03:46:39;;;;;;;3.40;1.20;;;13.60;99.90;;;;;;5053745;28;20049;-69
2023/10/08 03:49:11;;;;;;;3.78;1.17;;;13.60;99.90;;;;;;5052287;28;20404;-69
2023/10/08 03:51:40;;;;;;;3.60;1.05;;;13.60;99.90;;;;;;5051933;28;20059;-69
2023/10/08 03:56:36;;;;;;;5.90;1.30;;;13.60;99.90;;;;;;5036207;28;20134;-69
2023/10/08 03:59:55;;;;;;;9.80;1.70;;;13.60;99.90;;;;;;5052587;28;20041;-68
2023/10/08 04:01:54;;;;;;;6.72;1.50;;;13.60;99.90;;;;;;5025013;28;20053;-69
2023/10/08 04:04:24;;;;;;;7.75;1.70;;;13.60;99.90;;;;;;5035420;28;20053;-69
2023/10/08 04:06:51;;;;;;;3.83;1.42;;;13.60;99.90;;;;;;5034373;28;20059;-69
2023/10/08 04:11:51;;;;;;;3.75;1.20;;;13.60;99.90;;;;;;5051739;28;20111;-69
2023/10/08 04:14:24;;;;;;;4.05;1.50;;;13.50;99.90;;;;;;5015067;28;20045;-69
2023/10/08 04:16:51;;;;;;;6.55;1.50;;;13.60;99.90;;;;;;5021387;28;20067;-69
2023/10/08 04:19:26;;;;;;;7.35;1.40;;;13.60;99.90;;;;;;5052029;28;20055;-69
2023/10/08 04:21:56;;;;;;;5.30;1.52;;;13.50;99.90;;;;;;5033150;28;20400;-69
2023/10/08 04:24:28;;;;;;;4.57;1.35;;;13.50;99.90;;;;;;5033288;28;20052;-69
2023/10/08 04:26:58;;;;;;;3.85;1.50;;;13.50;99.90;;;;;;5032416;28;20045;-69
2023/10/08 04:29:26;;;;;;;5.95;1.50;;;13.50;99.90;;;;;;5033232;28;20056;-69
2023/10/08 04:32:01;;;;;;;6.50;1.40;;;13.60;99.90;;;;;;5032513;28;20053;-69
2023/10/08 04:34:33;;;;;;;5.93;1.90;;;13.50;99.90;;;;;;5049881;28;20053;-69
2023/10/08 04:37:00;;;;;;;5.45;1.70;;;13.50;99.90;;;;;;5035266;28;20041;-69
2023/10/08 04:39:33;;;;;;;8.05;1.80;;;13.50;99.90;;;;;;5052608;28;20076;-68
2023/10/08 04:42:13;;;;;;;3.75;1.45;;;13.50;99.90;;;;;;5034401;28;20053;-69
2023/10/08 04:44:40;;;;;;;7.65;2.03;;;13.50;99.90;;;;;;5015256;28;20046;-69
2023/10/08 04:47:09;;;;;;;4.35;1.60;;;13.50;99.90;;;;;;5031494;28;20245;-69
2023/10/08 04:49:37;;;;;;;7.88;1.70;;;13.50;99.90;;;;;;5034605;28;20400;-69
2023/10/08 04:52:18;;;;;;;5.95;1.80;;;13.50;99.90;;;;;;5034540;28;20090;-69
2023/10/08 04:54:54;;;;;;;7.78;1.67;;;13.40;99.90;;;;;;5034264;28;20044;-69
2023/10/08 04:57:25;;;;;;;5.90;1.58;;;13.50;99.90;;;;;;5035180;28;20092;-69
2023/10/08 04:59:53;;;;;;;8.38;1.50;;;13.50;99.90;;;;;;5052399;28;20090;-69
2023/10/08 05:02:19;;;;;;;6.22;1.40;;;13.40;99.90;;;;;;5051808;28;20065;-69
2023/10/08 05:05:23;;;;;;;8.35;1.35;;;13.40;99.90;;;;;;5035060;28;20072;-69
2023/10/08 05:10:32;;;;;;;5.75;1.60;;;13.40;99.90;;;;;;5052844;28;20052;-69
2023/10/08 05:18:54;;;;;;;7.57;1.70;;;13.40;99.90;;;;;;5018377;28;20098;-70
2023/10/08 05:21:28;;;;;;;5.68;1.70;;;13.50;99.90;;;;;;5036720;28;20053;-69
2023/10/08 05:24:08;;;;;;;6.70;1.80;;;13.40;99.90;;;;;;5070137;28;20071;-69
2023/10/08 05:26:41;;;;;;;7.07;1.50;;;13.40;99.90;;;;;;5036237;28;20507;-70
2023/10/08 05:34:50;;;;;;;5.63;1.50;;;13.30;99.90;;;;;;5052337;28;20435;-69
2023/10/08 05:37:32;;;;;;;7.60;1.83;;;13.30;99.90;;;;;;5033509;28;20502;-69
2023/10/08 05:40:11;;;;;;;8.55;1.55;;;13.30;99.90;;;;;;5033602;28;20174;-69
2023/10/08 05:42:46;;;;;;;7.70;1.60;;;13.30;99.90;;;;;;5065828;28;20050;-66
2023/10/08 05:47:38;;;;;;;6.53;1.27;;;13.20;99.90;;;;;;5059208;28;20066;-69
2023/10/08 05:53:14;;;;;;;10.57;1.70;;;13.20;99.90;;;;;;5063815;28;20095;-69
2023/10/08 05:55:47;;;;;;;5.95;1.30;;;13.20;99.90;;;;;;5065221;28;20523;-69
2023/10/08 05:58:13;;;;;;;7.15;1.40;;;13.20;99.90;;;;;;5037942;28;20048;-69
2023/10/08 06:03:32;;;;;;;4.43;1.25;;;13.20;99.90;;;;;;5055837;28;20072;-69
2023/10/08 06:12:10;;;;;;;5.93;1.50;;;13.10;99.90;;;;;;5053159;28;20124;-70
2023/10/08 06:14:28;;;;;;;7.50;1.33;;;13.10;99.90;;;;;;5028728;28;20068;-69
2023/10/08 06:17:23;;;;;;;6.43;1.60;;;13.10;99.90;;;;;;5037475;28;20049;-69
2023/10/08 06:19:40;;;;;;;8.27;2.00;;;13.10;99.90;;;;;;5036086;28;20053;-71
2023/10/08 06:22:06;;;;;;;6.70;1.40;;;13.20;99.90;;;;;;5054492;28;20099;-70
2023/10/08 06:24:33;;;;;;;5.50;1.25;;;13.20;99.90;;;;;;5054016;28;20488;-69
2023/10/08 06:27:04;;;;;;;4.25;1.20;;;13.20;99.90;;;;;;5054217;28;20071;-69
2023/10/08 06:29:31;;;;;;;10.57;1.55;;;13.20;99.90;;;;;;5055376;28;20045;-69
2023/10/08 06:32:01;;;;;;;6.53;1.40;;;13.20;99.90;;;;;;5054987;28;20045;-69
2023/10/08 06:34:28;;;;;;;6.07;1.38;;;13.10;99.90;;;;;;5053318;28;20052;-70
2023/10/08 06:36:55;;;;;;;3.80;1.20;;;13.10;99.90;;;;;;5054739;28;20045;-69
2023/10/08 06:39:47;;;;;;;5.07;1.52;;;13.20;99.90;;;;;;5053535;28;20438;-69
2023/10/08 06:42:16;;;;;;;5.32;1.10;;;13.10;99.90;;;;;;5055098;28;20079;-69
2023/10/08 06:44:45;;;;;;;6.18;1.20;;;13.10;99.90;;;;;;5055231;28;20064;-69
2023/10/08 06:47:15;;;;;;;6.10;1.40;;;13.20;99.90;;;;;;5054064;28;20378;-69
2023/10/08 06:49:43;;;;;;;8.15;1.27;;;13.10;99.90;;;;;;5055241;28;20068;-70
2023/10/08 06:52:13;;;;;;;5.05;1.30;;;13.20;99.90;;;;;;5048048;28;20061;-70
2023/10/08 06:54:38;;;;;;;5.75;1.40;;;13.20;99.90;;;;;;5032524;28;20056;-70
2023/10/08 06:57:04;;;;;;;5.05;1.30;;;13.20;99.90;;;;;;5032826;28;20426;-72
2023/10/08 06:59:31;;;;;;;5.15;1.42;;;13.30;99.90;;;;;;5039924;28;20383;-71
2023/10/08 07:01:58;;;;;;;6.95;1.65;;;13.30;99.90;;;;;;5050408;28;20438;-71
2023/10/08 07:04:24;;;;;;;6.10;1.52;;;13.30;99.90;;;;;;5033581;28;20049;-70
2023/10/08 07:06:50;;;;;;;8.60;1.70;;;13.40;99.90;;;;;;5035332;28;20052;-70
2023/10/08 07:11:55;;;;;;;4.70;1.38;;;13.50;99.90;;;;;;5046376;28;20404;-69
2023/10/08 07:14:26;;;;;;;5.03;1.40;;;13.50;99.90;;;;;;5034103;28;20541;-71
2023/10/08 07:16:54;;;;;;;4.40;1.50;;;13.60;99.90;;;;;;5052924;28;20045;-69
2023/10/08 07:19:23;;;;;;;7.38;1.73;;;13.60;99.90;;;;;;5036485;28;20037;-70
2023/10/08 07:21:53;;;;;;;7.70;1.50;;;13.60;99.90;;;;;;5035713;28;20427;-70
2023/10/08 07:24:21;;;;;;;8.98;1.70;;;13.70;99.90;;;;;;5035975;28;20049;-72
2023/10/08 07:26:49;;;;;;;8.10;1.73;;;13.80;99.90;;;;;;5053277;28;20044;-73
2023/10/08 07:29:19;;;;;;;6.70;1.50;;;13.80;99.90;;;;;;5033903;28;20072;-73
2023/10/08 07:31:52;;;;;;;9.52;1.88;;;13.90;99.90;;;;;;5051008;28;20523;-78
2023/10/08 07:34:18;;;;;;;7.70;1.95;;;14.00;99.90;;;;;;5035701;28;20069;-73
2023/10/08 07:36:49;;;;;;;5.78;1.55;;;14.10;99.90;;;;;;5035199;28;20045;-73
2023/10/08 07:39:26;;;;;;;6.07;1.50;;;14.20;99.90;;;;;;5053432;28;20051;-73
2023/10/08 07:41:56;;;;;;;7.13;1.38;;;14.30;99.90;;;;;;5035321;28;20496;-73
2023/10/08 07:44:23;;;;;;;8.43;1.35;;;14.30;99.90;;;;;;5052560;28;20037;-77
2023/10/08 07:46:50;;;;;;;5.32;1.48;;;14.50;99.90;;;;;;5034752;28;20041;-76
2023/10/08 07:49:16;;;;;;;3.75;1.25;;;14.80;99.90;;;;;;5053408;28;20091;-73
2023/10/08 07:51:50;;;;;;;8.23;1.60;;;15.20;99.90;;;;;;5052777;28;20041;-75
2023/10/08 07:54:19;;;;;;;8.13;1.50;;;15.70;99.90;;;;;;5035118;28;20487;-74
2023/10/08 07:56:46;;;;;;;8.20;1.63;;;16.10;99.90;;;;;;5052886;28;20079;-75
2023/10/08 07:59:14;;;;;;;10.52;1.83;;;16.40;99.90;;;;;;5053084;28;20041;-76
2023/10/08 08:01:42;;;;;;;8.05;1.35;;;16.50;99.90;;;;;;5035463;28;20092;-74
2023/10/08 08:04:22;;;;;;;8.90;1.70;;;16.40;99.90;;;;;;5034967;28;20040;-74
2023/10/08 08:06:52;;;;;;;8.20;1.67;;;16.30;99.90;;;;;;5033637;28;20099;-81
2023/10/08 08:09:19;;;;;;;8.48;1.80;;;16.20;99.90;;;;;;5034953;28;20072;-73
2023/10/08 08:11:46;;;;;;;6.25;1.50;;;16.10;99.90;;;;;;5058922;28;20496;-73
2023/10/08 08:14:16;;;;;;;6.57;1.20;;;16.10;99.90;;;;;;5061991;28;20128;-74
2023/10/08 08:16:47;;;;;;;8.93;1.58;;;16.10;99.90;;;;;;5058318;28;20369;-75
2023/10/08 08:19:15;;;;;;;7.55;1.65;;;16.10;99.90;;;;;;5052484;28;20045;-75
2023/10/08 08:21:45;;;;;;;8.90;1.50;;;16.10;99.90;;;;;;5027738;28;20091;-74
2023/10/08 08:24:28;;;;;;;8.20;1.40;;;16.00;99.90;;;;;;5050769;28;20484;-73
2023/10/08 08:27:07;;;;;;;8.00;1.70;;;16.00;99.90;;;;;;5050619;28;20049;-73
2023/10/08 08:29:44;;;;;;;5.30;1.27;;;16.10;99.90;;;;;;5033998;28;20033;-74
2023/10/08 08:32:12;;;;;;;;;;;16.10;99.90;;;;;;5048185;28;20137;-73
2023/10/08 08:34:43;;;;;;;6.55;1.48;;;16.10;99.90;;;;;;5034423;28;19966;-71
2023/10/08 08:37:12;;;;;;;5.68;1.50;;;16.10;99.90;;;;;;5051212;28;20041;-73
2023/10/08 08:39:41;;;;;;;5.13;1.30;;;16.20;99.90;;;;;;5033797;28;20059;-72
2023/10/08 08:42:07;;;;;;;9.27;1.80;;;16.30;99.90;;;;;;5051698;28;20472;-73
2023/10/08 08:44:43;;;;;;;4.95;1.45;;;17.10;99.90;;;;;;5034838;28;20052;-73
2023/10/08 08:47:14;;;;;;;5.97;1.27;;;18.60;99.90;;;;;;5033940;28;20080;-73
2023/10/08 08:49:42;;;;;;;4.75;1.25;;;20.10;99.90;;;;;;5052585;28;20480;-73
2023/10/08 08:52:11;;;;;;;5.90;1.30;;;21.40;99.90;;;;;;5052143;28;20120;-75
2023/10/08 08:54:36;;;;;;;5.18;1.42;;;22.20;99.90;;;;;;5052021;28;20048;-78
2023/10/08 08:57:04;;;;;;;7.57;1.33;;;22.60;99.90;;;;;;5052132;28;20045;-71
2023/10/08 08:59:30;;;;;;;5.65;1.52;;;22.70;99.90;;;;;;5034718;28;20060;-71
2023/10/08 09:02:00;;;;;;;6.72;1.42;;;22.90;99.80;;;;;;5051439;28;20131;-71
2023/10/08 09:04:38;;;;;;;6.88;1.40;;;23.40;99.00;;;;;;5034521;28;20080;-71
2023/10/08 09:07:04;;;;;;;5.93;1.65;;;23.60;97.30;;;;;;5033397;28;20047;-72
2023/10/08 09:09:34;;;;;;;7.25;1.60;;;24.00;96.40;;;;;;5052480;28;20048;-71
2023/10/08 09:12:01;;;;;;;5.80;1.50;;;23.90;97.70;;;;;;5034360;28;20468;-71
2023/10/08 09:14:29;;;;;;;6.55;1.40;;;23.60;96.80;;;;;;5051979;28;20070;-71
2023/10/08 09:16:56;;;;;;;4.10;1.10;;;23.10;96.90;;;;;;5030840;28;20049;-71
2023/10/08 09:19:24;;;;;;;6.28;1.50;;;22.90;97.80;;;;;;5047030;28;20135;-72
2023/10/08 09:22:07;;;;;;;7.47;1.50;;;22.70;95.70;;;;;;5048699;28;20090;-72
2023/10/08 09:24:39;;;;;;;5.85;1.40;;;22.20;96.00;;;;;;5025409;28;20118;-73
2023/10/08 09:27:13;;;;;;;8.30;1.60;;;21.90;97.60;;;;;;5055757;28;20124;-71
2023/10/08 09:29:40;;;;;;;6.75;1.58;;;21.70;99.30;;;;;;5018020;28;20056;-71
2023/10/08 09:32:10;;;;;;;5.50;1.50;;;21.70;99.90;;;;;;5018493;28;20045;-71
2023/10/08 09:34:36;;;;;;;4.88;1.33;;;21.70;99.00;;;;;;5021331;28;20509;-71
2023/10/08 09:37:05;;;;;;;4.22;1.20;;;21.90;98.70;;;;;;5036377;28;20053;-70
2023/10/08 09:39:51;;;;;;;7.55;1.17;;;21.60;97.30;;;;;;5052665;28;20508;-71
2023/10/08 09:42:21;;;;;;;;;;;21.20;97.80;;;;;;5034931;28;20555;-70
2023/10/08 09:44:47;;;;;;;8.50;1.45;;;20.40;98.50;;;;;;5054848;28;19939;-74
2023/10/08 09:47:24;;;;;;;6.00;1.38;;;20.30;99.90;;;;;;5055769;28;20472;-71
2023/10/08 09:50:07;;;;;;;5.28;1.30;;;20.20;99.90;;;;;;5037191;28;20049;-71
2023/10/08 09:52:53;;;;;;;6.35;1.60;;;20.10;99.10;;;;;;5037826;28;20373;-71
2023/10/08 09:55:20;;;;;;;7.60;1.50;;;20.00;99.90;;;;;;5038092;28;20052;-71
2023/10/08 09:57:46;;;;;;;8.15;1.50;;;20.00;99.90;;;;;;5036498;28;20056;-71
2023/10/08 10:00:15;;;;;;;5.38;1.70;;;20.00;99.00;;;;;;5055382;28;20161;-71
2023/10/08 10:02:43;;;;;;;6.43;1.45;;;20.70;99.90;;;;;;5055324;28;20194;-71
2023/10/08 10:05:12;;;;;;;7.50;1.95;;;21.40;99.60;;;;;;5054483;28;20044;-70
2023/10/08 10:07:43;;;;;;;8.70;2.20;;;21.50;97.90;;;;;;5052356;28;20368;-71
2023/10/08 10:10:30;;;;;;;4.82;1.63;;;21.30;97.90;;;;;;5036733;28;20472;-71
2023/10/08 10:13:09;;;;;;;10.32;1.30;;;21.60;98.50;;;;;;5037474;28;20041;-71
2023/10/08 10:15:39;;;;;;;6.70;1.40;;;22.10;97.90;;;;;;5037607;28;20102;-71
2023/10/08 10:18:25;;;;;;;10.05;1.50;;;22.70;96.80;;;;;;5036294;28;20223;-71
2023/10/08 10:20:56;;;;;;;6.30;1.30;;;23.20;97.50;;;;;;5037709;28;20048;-71
2023/10/08 10:23:42;;;;;;;6.47;1.50;;;23.60;95.90;;;;;;5037733;28;20083;-70
2023/10/08 10:26:30;;;;;;;7.47;1.80;;;23.50;96.80;;;;;;5054223;28;20076;-70
2023/10/08 10:29:14;;;;;;;6.68;1.92;;;23.80;94.10;;;;;;5036949;28;20459;-71
2023/10/08 10:31:53;;;;;;;7.63;1.80;;;23.60;93.90;;;;;;5036091;28;20130;-70
2023/10/08 10:34:26;;;;;;;8.50;1.70;;;23.40;94.30;;;;;;5037661;28;20396;-71
2023/10/08 10:36:56;;;;;;;7.45;1.50;;;24.30;94.30;;;;;;5034042;28;20040;-70
2023/10/08 10:39:31;;;;;;;5.45;1.58;;;24.60;92.30;;;;;;5034404;28;20056;-71
2023/10/08 10:42:01;;;;;;;7.00;1.73;;;24.20;92.50;;;;;;5035073;28;20049;-73
2023/10/08 10:44:29;;;;;;;5.90;1.50;;;22.90;94.00;;;;;;5055084;28;20036;-70
2023/10/08 10:49:53;;;;;;;4.93;1.48;;;21.90;94.90;;;;;;5036511;28;20053;-71
2023/10/08 10:52:32;;;;;;;7.13;1.77;;;21.60;95.10;;;;;;5054942;28;20138;-71
2023/10/08 10:57:41;;;;;;;5.85;1.30;;;20.40;95.80;;;;;;5053975;28;20401;-70
2023/10/08 11:03:02;;;;;;;22.20;3.35;;;19.70;97.40;;;;;;5000282;28;20061;-70
2023/10/08 11:05:33;;;;;;;6.63;1.60;;;19.50;97.30;;;;;;5036224;28;20037;-70
2023/10/08 11:08:04;;;;;;;9.23;1.30;;;19.40;97.30;;;;;;5035813;28;20090;-71
2023/10/08 11:10:38;;;;;;;5.65;1.40;;;19.60;98.10;;;;;;5036669;28;20045;-71
2023/10/08 11:13:14;;;;;;;9.15;1.40;;;19.80;97.90;;;;;;5054194;28;20045;-71
2023/10/08 11:15:48;;;;;;;5.93;1.30;;;20.20;97.20;;;;;;5035851;28;20041;-71
2023/10/08 11:18:19;;;;;;;10.85;1.50;;;20.20;97.60;;;;;;5054039;28;20041;-71
2023/10/08 11:20:46;;;;;;;5.40;1.23;;;20.30;97.50;;;;;;5035470;28;20071;-71
2023/10/08 11:23:33;;;;;;;6.07;1.15;;;20.70;96.80;;;;;;5036452;28;20056;-71
2023/10/08 11:26:03;;;;;;;;;;;20.60;96.60;;;;;;5053964;28;20045;-71
2023/10/08 11:28:34;;;;;;;6.25;1.20;;;20.40;96.80;;;;;;5053663;28;19927;-70
2023/10/08 11:31:10;;;;;;;6.93;1.33;;;20.20;97.60;;;;;;5053886;28;20037;-70
2023/10/08 11:33:55;;;;;;;5.13;1.20;;;20.40;99.90;;;;;;5035721;28;20056;-78
2023/10/08 11:36:29;;;;;;;5.70;1.33;;;21.50;97.20;;;;;;5034355;28;20053;-73
2023/10/08 11:39:06;;;;;;;6.93;1.55;;;22.30;95.00;;;;;;5035816;28;20443;-72
2023/10/08 11:41:42;;;;;;;6.35;1.33;;;21.80;95.00;;;;;;5053615;28;20108;-74
2023/10/08 11:44:13;;;;;;;6.95;1.45;;;21.30;95.70;;;;;;5035985;28;20080;-73
2023/10/08 11:46:39;;;;;;;4.68;1.35;;;20.60;96.80;;;;;;5035146;28;20049;-76
2023/10/08 11:49:17;;;;;;;6.55;1.40;;;20.30;96.90;;;;;;5034538;28;20057;-71
2023/10/08 11:51:44;;;;;;;3.47;1.20;;;20.00;97.30;;;;;;5060057;28;20159;-71
2023/10/08 11:54:11;;;;;;;3.88;1.10;;;19.60;97.70;;;;;;5035782;28;20055;-71
2023/10/08 11:56:38;;;;;;;7.07;1.48;;;19.50;98.30;;;;;;5059487;28;20040;-73
2023/10/08 11:59:08;;;;;;;8.15;1.58;;;19.50;98.20;;;;;;5055504;28;20496;-73
2023/10/08 12:01:42;;;;;;;5.60;1.23;;;19.40;98.10;;;;;;5062716;28;20177;-75
2023/10/08 12:04:15;;;;;;;;;;;19.60;97.90;;;;;;5034285;28;20053;-75
2023/10/08 12:06:49;;;;;;;6.78;1.20;;;19.80;97.90;;;;;;5035235;28;19943;-73
2023/10/08 12:09:14;;;;;;;5.13;1.30;;;20.40;97.60;;;;;;5035813;28;20052;-77
2023/10/08 12:11:40;;;;;;;4.85;1.50;;;20.60;97.40;;;;;;5052539;28;20041;-78
2023/10/08 12:14:06;;;;;;;4.65;1.35;;;21.10;97.30;;;;;;5034176;28;20052;-72
2023/10/08 12:16:39;;;;;;;4.15;1.48;;;21.90;97.00;;;;;;5052559;28;20067;-72
2023/10/08 12:19:15;;;;;;;8.98;1.45;;;22.50;95.30;;;;;;5033855;28;20083;-73
2023/10/08 12:21:41;;;;;;;4.88;1.20;;;22.50;95.60;;;;;;5052518;28;20045;-74
2023/10/08 12:24:12;;;;;;;5.68;1.35;;;22.30;95.70;;;;;;5034021;28;20045;-74
2023/10/08 12:26:42;;;;;;;4.05;1.38;;;22.70;93.90;;;;;;5034605;28;20051;-72
2023/10/08 12:29:08;;;;;;;5.72;1.23;;;22.90;94.20;;;;;;5034731;28;20056;-75
2023/10/08 12:31:33;;;;;;;4.47;1.30;;;23.10;94.20;;;;;;5052044;28;20127;-78
2023/10/08 12:34:00;;;;;;;4.47;1.17;;;23.10;93.90;;;;;;5034786;28;20115;-74
2023/10/08 12:36:27;;;;;;;5.85;1.50;;;23.00;94.00;;;;;;5034928;28;20044;-74
2023/10/08 12:38:59;;;;;;;4.88;1.60;;;23.10;93.70;;;;;;5033937;28;20075;-77
2023/10/08 12:41:27;;;;;;;6.25;1.40;;;22.70;94.30;;;;;;5061171;28;20032;-79
2023/10/08 12:43:53;;;;;;;4.95;1.23;;;22.50;94.90;;;;;;5034557;28;20048;-75
2023/10/08 12:46:26;;;;;;;6.65;1.30;;;22.60;96.10;;;;;;5051906;28;20049;-77
2023/10/08 12:48:54;;;;;;;6.32;1.30;;;22.80;95.10;;;;;;5030665;28;20057;-78
2023/10/08 12:51:24;;;;;;;6.20;1.35;;;22.70;94.80;;;;;;5032382;28;20045;-76
2023/10/08 12:56:32;;;;;;;4.68;1.13;;;22.10;94.20;;;;;;5031137;28;20115;-78
2023/10/08 12:59:04;;;;;;;5.15;1.23;;;21.30;95.40;;;;;;5029850;28;20095;-73
2023/10/08 13:01:30;;;;;;;4.45;1.40;;;20.80;96.50;;;;;;5023549;28;20505;-77
2023/10/08 13:04:06;;;;;;;5.60;1.23;;;20.90;95.60;;;;;;5031201;28;20103;-72
2023/10/08 13:06:37;;;;;;;7.82;1.23;;;20.70;96.20;;;;;;5030235;28;20045;-79
2023/10/08 13:09:09;;;;;;;7.30;1.65;;;20.20;96.20;;;;;;5030471;28;20064;-75
2023/10/08 13:11:35;;;;;;;7.20;1.30;;;19.80;96.80;;;;;;5030936;28;20059;-74
2023/10/08 13:14:00;;;;;;;7.43;1.30;;;19.60;97.20;;;;;;5028499;28;20045;-71
2023/10/08 13:16:37;;;;;;;5.78;1.20;;;19.30;98.40;;;;;;5031413;28;20049;-77
2023/10/08 13:19:03;;;;;;;6.03;1.25;;;19.30;98.20;;;;;;5027765;28;20045;-71
2023/10/08 13:21:31;;;;;;;3.70;0.90;;;19.10;98.80;;;;;;5027842;28;20103;-76
2023/10/08 13:23:59;;;;;;;5.93;1.40;;;19.00;99.10;;;;;;5030519;28;20125;-75
2023/10/08 13:26:30;;;;;;;6.25;2.10;;;19.10;98.90;;;;;;5029968;28;20527;-71
2023/10/08 13:28:58;;;;;;;8.05;1.45;;;19.10;99.20;;;;;;5027780;28;20041;-70
2023/10/08 13:31:24;;;;;;;7.50;1.20;;;19.10;98.90;;;;;;5030317;28;20033;-81
2023/10/08 13:33:52;;;;;;;4.22;1.30;;;19.10;98.70;;;;;;5030862;28;20052;-70
2023/10/08 13:36:20;;;;;;;4.97;1.20;;;19.00;98.80;;;;;;5028402;28;20049;-74
2023/10/08 13:38:46;;;;;;;6.32;1.10;;;18.90;99.70;;;;;;5029475;28;20431;-72
2023/10/08 13:41:16;;;;;;;5.97;1.20;;;18.70;99.90;;;;;;5029200;28;20128;-71
2023/10/08 13:43:45;;;;;;;7.03;1.38;;;18.70;99.90;;;;;;5024801;28;20061;-71
2023/10/08 13:46:17;;;;;;;6.38;1.20;;;18.50;99.90;;;;;;5025694;28;20112;-71
2023/10/08 13:48:50;;;;;;;7.70;1.40;;;18.50;99.90;;;;;;5036800;28;20053;-71
2023/10/08 13:51:25;;;;;;;7.25;1.40;;;18.40;99.90;;;;;;5028314;28;20044;-71
2023/10/08 13:54:00;;;;;;;4.50;1.42;;;18.40;99.90;;;;;;5029317;28;20049;-71
2023/10/08 13:56:27;;;;;;;6.22;1.35;;;18.30;99.90;;;;;;5041566;28;20045;-71
2023/10/08 13:59:12;;;;;;;8.73;1.52;;;18.30;99.90;;;;;;5027593;28;20045;-71
2023/10/08 14:01:51;;;;;;;7.50;2.10;;;18.30;99.90;;;;;;5052009;28;20037;-73
2023/10/08 14:04:19;;;;;;;7.25;1.58;;;18.30;99.90;;;;;;5031846;28;20132;-71
2023/10/08 14:06:52;;;;;;;7.57;1.30;;;18.20;99.90;;;;;;5032152;28;20047;-72